Buoy 41503

sailwx.info

Track history (hours):
 
Tides and Currents Weather Stations Pressure Air Temp Water Temp Dewpoint Dewpoint Depression Visibility Wind Speed Wind Dir Waves Ship Positions

Drifting buoy 41503

Last reported at 2015-May-25 20:02 UTC. Time now 2015-May-25 21:40 UTC.
Position N 39°26' W 055°53'.

Water temperature 21.4 ° C

Date/timePositionNaut miles runAvg speedWind from/ knotsBaromVisibWave heightAir tempDewpointWater temp
2015-May-25 20:02N 39°26' W 055°53'0 0.5 21.4
2015-May-25 19:52N 39°27' W 055°53'2 1.4 21.5
2015-May-25 18:43N 39°26' W 055°55'1 1.3 21.5
2015-May-25 18:08N 39°27' W 055°56'2 1.6 21.3
2015-May-25 17:08N 39°26' W 055°58'2 0.9 21.1
2015-May-25 15:08N 39°25' W 055°60'0 2.2 20.5
2015-May-25 15:03N 39°25' W 055°60'0 9.8 20.5
2015-May-25 15:00N 39°25' W 055°59'1 0.3 20.5
2015-May-25 10:07N 39°25' W 056°01'7149.1 19.8
2015-May-25 10:04N 39°31' W 056°07'0 0.0 19.8
2015-May-25 01:48N 39°31' W 056°07'1 1.6
2015-May-25 01:03N 39°31' W 056°08'4 0.8 19.9
2015-May-24 20:04N 39°31' W 056°14'0 0.7 20.2
2015-May-24 19:56N 39°31' W 056°14'0 0.5 20.2
2015-May-24 19:08N 39°31' W 056°14'0 3.0 20.2
2015-May-24 19:02N 39°31' W 056°14'1 1.5 20.2
2015-May-24 18:17N 39°31' W 056°15'1 0.2 20.2
2015-May-24 13:52N 39°31' W 056°14'1 0.8 19.8
2015-May-24 12:02N 39°32' W 056°14'0 0.0 19.7
2015-May-24 11:09N 39°32' W 056°14'1 4.4 19.7
2015-May-24 11:00N 39°32' W 056°14'1 1.1 19.7
2015-May-24 10:09N 39°33' W 056°15'11 1.1 19.7
2015-May-23 23:51N 39°39' W 056°26'1 1.3 20.2
2015-May-23 22:59N 39°39' W 056°28'1 5.3 20.4
2015-May-23 22:48N 39°38' W 056°28'0 0.0 20.4
2015-May-23 21:55N 39°38' W 056°28'1 1.1 20.5
2015-May-23 21:08N 39°38' W 056°29'214.7 20.6
2015-May-23 21:01N 39°37' W 056°31'0 0.0 20.6
2015-May-23 20:16N 39°37' W 056°31'1 0.9 20.6
2015-May-23 19:08N 39°36' W 056°30'1 0.2 20.9
2015-May-23 15:48N 39°36' W 056°29'0 0.4
2015-May-23 14:57N 39°36' W 056°29'1 1.2 20.4
2015-May-23 14:05N 39°35' W 056°28'114.7 20.1
2015-May-23 14:02N 39°36' W 056°28'1 0.3 20.1
2015-May-23 09:55N 39°37' W 056°29'1 0.8 20.0
2015-May-23 08:09N 39°38' W 056°30'2 0.8 20.0
2015-May-23 06:06N 39°39' W 056°31'0 0.0 20.0
2015-May-23 06:03N 39°39' W 056°31'1 7.3 20.0
2015-May-23 05:57N 39°39' W 056°32'2 1.0 20.0
2015-May-23 04:17N 39°39' W 056°34'1 0.2 20.1
2015-May-23 01:52N 39°39' W 056°35'0 0.0 20.2
2015-May-23 01:01N 39°39' W 056°35'1 1.5 20.2
2015-May-23 00:09N 39°38' W 056°36'0 4.2 20.2
2015-May-23 00:05N 39°38' W 056°37'1 0.3 20.2
2015-May-22 22:07N 39°38' W 056°38'0 2.6 20.2
2015-May-22 22:01N 39°38' W 056°37'1 0.4 20.2
2015-May-22 19:59N 39°38' W 056°38'0 0.9 20.2
2015-May-22 19:54N 39°38' W 056°38'0 0.7 20.2
2015-May-22 19:18N 39°37' W 056°38'1 0.4 20.2
2015-May-22 16:03N 39°36' W 056°39'0 0.0 20.1
2015-May-22 16:00N 39°36' W 056°39'1 0.2 20.1
2015-May-22 12:49N 39°36' W 056°38'1 0.6 19.9
2015-May-22 11:55N 39°36' W 056°37'0 0.3 19.9
2015-May-22 10:09N 39°37' W 056°37'0 0.0 19.8
2015-May-22 09:30N 39°37' W 056°37'0 0.4 19.8
2015-May-22 09:01N 39°37' W 056°37'0 0.6 19.7
2015-May-22 08:56N 39°37' W 056°37'0 4.2 19.7
2015-May-22 08:54N 39°37' W 056°37'1 0.5 19.7
2015-May-22 07:17N 39°37' W 056°36'0 2.6 19.7
2015-May-22 07:14N 39°37' W 056°36'0 3.3 19.7
2015-May-22 07:12N 39°37' W 056°36'0 0.1 19.7
2015-May-22 06:16N 39°37' W 056°36'0 0.9 19.7
2015-May-22 06:13N 39°37' W 056°36'0 0.0 19.7
2015-May-22 06:08N 39°37' W 056°36'120.1 19.7
2015-May-22 06:06N 39°38' W 056°36'1 0.4 19.7
2015-May-22 02:59N 39°39' W 056°35'0 0.4 19.7
2015-May-22 02:13N 39°38' W 056°35'0 4.7 19.7
2015-May-22 02:08N 39°38' W 056°35'0 0.1 19.7
2015-May-22 00:35N 39°38' W 056°35'0 0.5 19.8
2015-May-21 23:51N 39°39' W 056°34'1 0.6 19.8
2015-May-21 22:13N 39°39' W 056°33'0 0.0 19.9
2015-May-21 22:03N 39°39' W 056°33'2 1.0 19.9
2015-May-21 20:16N 39°41' W 056°33'1 0.4 20.0
2015-May-21 18:58N 39°42' W 056°33'1 1.0 20.0
2015-May-21 17:55N 39°43' W 056°33'2 1.0 20.0
2015-May-21 16:08N 39°44' W 056°34'1 1.0 20.0
2015-May-21 14:51N 39°45' W 056°35'1 1.5 20.0
2015-May-21 14:00N 39°47' W 056°36'1 0.9 20.0
2015-May-21 13:08N 39°47' W 056°37'0 9.1 20.0
2015-May-21 13:05N 39°47' W 056°37'0 0.2 20.0
2015-May-21 12:12N 39°47' W 056°37'3 0.9 20.0
2015-May-21 09:07N 39°48' W 056°40'0 8.6 20.2
2015-May-21 09:04N 39°48' W 056°40'1 0.9 20.2
2015-May-21 08:07N 39°49' W 056°41'0 0.0 20.2
2015-May-21 08:04N 39°49' W 056°41'117.7 20.2
2015-May-21 08:02N 39°48' W 056°40'3 1.9 20.2
2015-May-21 06:18N 39°51' W 056°43'3 0.6 20.2
2015-May-21 01:42N 39°52' W 056°46'1 1.2 20.2
2015-May-21 00:55N 39°52' W 056°48'1 0.7 20.2
2015-May-21 00:01N 39°52' W 056°48'1 7.7 20.2
2015-May-20 23:54N 39°52' W 056°50'1 0.8 20.2
2015-May-20 23:13N 39°52' W 056°49'1 0.5 20.2
2015-May-20 20:56N 39°52' W 056°51'1 0.4 20.2
2015-May-20 18:06N 39°52' W 056°52'1 0.4 20.4
2015-May-20 15:04N 39°53' W 056°54'2 0.6 20.4
2015-May-20 11:08N 39°53' W 056°57'0 3.4 19.9
2015-May-20 11:03N 39°53' W 056°57'0 0.0 19.9
2015-May-20 11:01N 39°53' W 056°57'0 4.2 19.9
2015-May-20 10:55N 39°53' W 056°57'0 0.7 19.9
2015-May-20 10:32N 39°53' W 056°57'1 0.4 19.9
2015-May-20 09:17N 39°54' W 056°57'0 0.0 19.9
2015-May-20 09:12N 39°54' W 056°57'0 0.3 19.9
2015-May-20 08:16N 39°54' W 056°57'0 0.3 19.9
2015-May-20 07:11N 39°54' W 056°57'1 0.6 19.9
2015-May-20 04:58N 39°55' W 056°57'2 0.6 19.9
2015-May-20 01:59N 39°56' W 056°59'1 3.8 19.9
2015-May-20 01:51N 39°56' W 056°60'1 0.4
2015-May-19 22:51N 39°57' W 057°01'0 7.5 20.0
2015-May-19 22:47N 39°57' W 057°01'1 0.5 20.0
2015-May-19 21:08N 39°57' W 057°02'0 2.3 20.2
2015-May-19 21:02N 39°58' W 057°02'1 0.5 20.2
2015-May-19 19:20N 39°58' W 057°03'1 0.7 20.1
2015-May-19 18:18N 39°58' W 057°04'4 1.0 20.1
2015-May-19 13:53N 40°01' W 057°08'0 0.1 19.9
2015-May-19 12:06N 40°00' W 057°08'0 0.0 19.8
2015-May-19 11:32N 40°00' W 057°08'1 5.0 19.8
2015-May-19 11:25N 40°01' W 057°09'0 0.2 19.8
2015-May-19 11:08N 40°01' W 057°09'132.9 19.8
2015-May-19 11:07N 40°01' W 057°09'1 7.7 19.8
2015-May-19 11:03N 40°01' W 057°09'1 0.5 19.8
2015-May-19 09:55N 40°01' W 057°09'1 5.2 19.7
2015-May-19 09:46N 40°01' W 057°10'0 0.0 19.7
2015-May-19 09:36N 40°01' W 057°10'0 1.1 19.7
2015-May-19 09:28N 40°02' W 057°10'110.3 19.7
2015-May-19 09:22N 40°02' W 057°11'2 0.6 19.7
2015-May-19 06:52N 40°03' W 057°13'210.7 19.7
2015-May-19 06:43N 40°03' W 057°15'0 0.0 19.7
2015-May-19 06:40N 40°03' W 057°15'0 0.0 19.7
2015-May-19 05:08N 40°03' W 057°15'224.4 19.7
2015-May-19 05:03N 40°03' W 057°18'0 0.0 19.7
2015-May-19 05:00N 40°03' W 057°18'0 0.0 19.7
2015-May-19 02:21N 40°03' W 057°18'0 0.5 19.5
2015-May-19 02:14N 40°03' W 057°18'0 0.0 19.5
2015-May-19 01:37N 40°03' W 057°18'0 0.0 19.5
2015-May-19 01:33N 40°03' W 057°18'1 0.8 19.5
2015-May-19 00:43N 40°03' W 057°19'1 0.7 19.5
2015-May-18 23:55N 40°03' W 057°20'0 3.0 19.5
2015-May-18 23:52N 40°03' W 057°20'012.5 19.5
2015-May-18 23:50N 40°03' W 057°20'110.7 19.5
2015-May-18 23:47N 40°03' W 057°20'1 0.8 19.5
2015-May-18 23:03N 40°03' W 057°20'1 0.5 19.5
2015-May-18 21:39N 40°03' W 057°21'0 3.6 19.5
2015-May-18 21:35N 40°04' W 057°22'0 0.3 19.5
2015-May-18 21:08N 40°03' W 057°21'1 1.3 19.5
2015-May-18 20:21N 40°03' W 057°23'0 0.9 19.5
2015-May-18 19:59N 40°04' W 057°23'0 0.0 19.5
2015-May-18 19:33N 40°04' W 057°23'0 0.0 19.5
2015-May-18 19:30N 40°04' W 057°23'0 0.2 19.5
2015-May-18 18:29N 40°04' W 057°23'1 0.7 19.5
2015-May-18 16:46N 40°04' W 057°25'1 0.7 19.5
2015-May-18 15:52N 40°04' W 057°26'0 0.2 19.5
2015-May-18 15:05N 40°04' W 057°25'136.1 19.5
2015-May-18 15:04N 40°04' W 057°26'112.0 19.5
2015-May-18 15:01N 40°04' W 057°25'1 0.7 19.5
2015-May-18 14:16N 40°04' W 057°26'1 6.6 19.5
2015-May-18 14:06N 40°05' W 057°27'0 0.3 19.5
2015-May-18 13:13N 40°05' W 057°28'0 0.4 19.5
2015-May-18 12:34N 40°05' W 057°27'0 1.7 19.5
2015-May-18 12:27N 40°05' W 057°28'0 0.8 19.5
2015-May-18 11:54N 40°05' W 057°28'0 6.2 19.4
2015-May-18 11:50N 40°05' W 057°29'0 0.0 19.4
2015-May-18 11:36N 40°05' W 057°29'0 2.2 19.4
2015-May-18 11:33N 40°05' W 057°29'0 0.2 19.4
2015-May-18 11:21N 40°05' W 057°29'117.4 19.4
2015-May-18 11:19N 40°05' W 057°30'0 0.0 19.4
2015-May-18 10:19N 40°05' W 057°30'0 0.4 19.4
2015-May-18 10:08N 40°05' W 057°30'0 0.8 19.4
2015-May-18 09:56N 40°05' W 057°30'0 1.0 19.4
2015-May-18 09:47N 40°05' W 057°30'0 0.0 19.4
2015-May-18 09:45N 40°05' W 057°30'115.5 19.4
2015-May-18 09:42N 40°05' W 057°31'1 0.6 19.4
2015-May-18 08:40N 40°05' W 057°31'110.4 19.4
2015-May-18 08:36N 40°05' W 057°32'1 2.5 19.4
2015-May-18 08:16N 40°05' W 057°31'1 2.8 19.4
2015-May-18 08:05N 40°05' W 057°32'0 2.3 19.4
2015-May-18 08:00N 40°05' W 057°32'112.5 19.4
2015-May-18 07:57N 40°05' W 057°32'0 0.0 19.4
2015-May-18 07:02N 40°05' W 057°32'0 1.9 19.4
2015-May-18 06:55N 40°05' W 057°33'121.9 19.4
2015-May-18 06:52N 40°04' W 057°34'0 0.0 19.4
2015-May-18 05:20N 40°04' W 057°34'213.8 19.4
2015-May-18 05:13N 40°04' W 057°36'1 0.3 19.4
2015-May-18 02:36N 40°04' W 057°37'0 0.0 19.4
2015-May-18 01:56N 40°04' W 057°37'1 0.9 19.4
2015-May-18 01:05N 40°04' W 057°37'0 0.0 19.4
2015-May-18 00:58N 40°04' W 057°37'1 9.3 19.4
2015-May-18 00:54N 40°03' W 057°38'0 0.0 19.4
2015-May-18 00:17N 40°03' W 057°38'0 0.7 19.4
2015-May-18 00:13N 40°03' W 057°38'0 4.0 19.4
2015-May-18 00:07N 40°03' W 057°39'0 0.0 19.4
2015-May-17 23:22N 40°03' W 057°39'1 8.6 19.4
2015-May-17 23:16N 40°02' W 057°39'0 0.0 19.4
2015-May-17 22:32N 40°02' W 057°39'0 0.0
2015-May-17 22:04N 40°02' W 057°39'0 0.0 19.4
2015-May-17 22:02N 40°02' W 057°39'0 0.4 19.4
2015-May-17 21:21N 40°02' W 057°40'1 4.3 19.4
2015-May-17 21:14N 40°03' W 057°40'1 1.4 19.4
2015-May-17 20:50N 40°02' W 057°40'0 0.0 19.3
2015-May-17 20:22N 40°02' W 057°40'0 0.5 19.3
2015-May-17 19:42N 40°02' W 057°40'0 0.0 19.3
2015-May-17 18:43N 40°02' W 057°40'0 0.0 19.3
2015-May-17 18:40N 40°02' W 057°40'1 5.8 19.3
2015-May-17 18:30N 40°02' W 057°42'0 0.0 19.3
2015-May-17 17:59N 40°02' W 057°42'0 0.0 19.3
2015-May-17 16:58N 40°02' W 057°42'0 2.3 19.3
2015-May-17 16:56N 40°02' W 057°42'0 0.1 19.3
2015-May-17 16:08N 40°02' W 057°42'1 0.7
2015-May-17 15:14N 40°02' W 057°42'2 0.5 19.3
2015-May-17 11:57N 40°02' W 057°45'0 2.3 19.2
2015-May-17 11:55N 40°02' W 057°45'1 0.5 19.2
2015-May-17 10:21N 40°01' W 057°45'0 0.8 19.2
2015-May-17 09:57N 40°01' W 057°45'0 1.4 19.2
2015-May-17 09:51N 40°01' W 057°46'0 0.3 19.2
2015-May-17 08:39N 40°01' W 057°45'1 2.4 19.3
2015-May-17 08:16N 40°01' W 057°46'0 6.6 19.3
2015-May-17 08:12N 40°01' W 057°47'111.3 19.3
2015-May-17 08:08N 40°00' W 057°46'0 0.4 19.3
2015-May-17 07:14N 40°00' W 057°47'0 2.1 19.3
2015-May-17 07:04N 40°00' W 057°46'1 0.2 19.3
2015-May-17 03:03N 39°60' W 057°47'1 0.2 19.3
2015-May-16 23:45N 40°00' W 057°48'0 0.3 19.2
2015-May-16 22:55N 40°00' W 057°48'0 0.2 19.2
2015-May-16 22:20N 40°00' W 057°48'1 0.4 19.2
2015-May-16 20:49N 40°00' W 057°48'0 0.0 19.2
2015-May-16 19:55N 40°00' W 057°48'0 0.5 19.2
2015-May-16 19:06N 40°00' W 057°48'1 1.4 19.2
2015-May-16 18:12N 40°01' W 057°50'0 0.1 19.2
2015-May-16 17:07N 40°01' W 057°50'0 0.0 19.2
2015-May-16 14:51N 40°01' W 057°50'1 0.8
2015-May-16 14:03N 40°01' W 057°50'0 0.0 19.2
2015-May-16 13:14N 40°01' W 057°50'0 3.1 19.1
2015-May-16 13:06N 40°01' W 057°51'2 1.8 19.1
2015-May-16 12:15N 39°60' W 057°52'0 0.0 19.1
2015-May-15 21:14N 39°60' W 057°52'1 0.6 19.2
2015-May-15 20:06N 40°00' W 057°53'   19.2
Track history (hours):
 
Tides and Currents Weather Stations Pressure Air Temp Water Temp Dewpoint Dewpoint Depression Visibility Wind Speed Wind Dir Waves Ship Positions

Drifting buoy 41503

Last reported at 2015-May-25 20:02 UTC. Time now 2015-May-25 21:40 UTC.
Position N 39°26' W 055°53'.

Water temperature 21.4 ° C

Date/timePositionNaut miles runAvg speedWind from/ knotsBaromVisibWave heightAir tempDewpointWater temp
2015-May-25 20:02N 39°26' W 055°53'0 0.5 21.4
2015-May-25 19:52N 39°27' W 055°53'2 1.4 21.5
2015-May-25 18:43N 39°26' W 055°55'1 1.3 21.5
2015-May-25 18:08N 39°27' W 055°56'2 1.6 21.3
2015-May-25 17:08N 39°26' W 055°58'2 0.9 21.1
2015-May-25 15:08N 39°25' W 055°60'0 2.2 20.5
2015-May-25 15:03N 39°25' W 055°60'0 9.8 20.5
2015-May-25 15:00N 39°25' W 055°59'1 0.3 20.5
2015-May-25 10:07N 39°25' W 056°01'7149.1 19.8
2015-May-25 10:04N 39°31' W 056°07'0 0.0 19.8
2015-May-25 01:48N 39°31' W 056°07'1 1.6
2015-May-25 01:03N 39°31' W 056°08'4 0.8 19.9
2015-May-24 20:04N 39°31' W 056°14'0 0.7 20.2
2015-May-24 19:56N 39°31' W 056°14'0 0.5 20.2
2015-May-24 19:08N 39°31' W 056°14'0 3.0 20.2
2015-May-24 19:02N 39°31' W 056°14'1 1.5 20.2
2015-May-24 18:17N 39°31' W 056°15'1 0.2 20.2
2015-May-24 13:52N 39°31' W 056°14'1 0.8 19.8
2015-May-24 12:02N 39°32' W 056°14'0 0.0 19.7
2015-May-24 11:09N 39°32' W 056°14'1 4.4 19.7
2015-May-24 11:00N 39°32' W 056°14'1 1.1 19.7
2015-May-24 10:09N 39°33' W 056°15'11 1.1 19.7
2015-May-23 23:51N 39°39' W 056°26'1 1.3 20.2
2015-May-23 22:59N 39°39' W 056°28'1 5.3 20.4
2015-May-23 22:48N 39°38' W 056°28'0 0.0 20.4
2015-May-23 21:55N 39°38' W 056°28'1 1.1 20.5
2015-May-23 21:08N 39°38' W 056°29'214.7 20.6
2015-May-23 21:01N 39°37' W 056°31'0 0.0 20.6
2015-May-23 20:16N 39°37' W 056°31'1 0.9 20.6
2015-May-23 19:08N 39°36' W 056°30'1 0.2 20.9
2015-May-23 15:48N 39°36' W 056°29'0 0.4
2015-May-23 14:57N 39°36' W 056°29'1 1.2 20.4
2015-May-23 14:05N 39°35' W 056°28'114.7 20.1
2015-May-23 14:02N 39°36' W 056°28'1 0.3 20.1
2015-May-23 09:55N 39°37' W 056°29'1 0.8 20.0
2015-May-23 08:09N 39°38' W 056°30'2 0.8 20.0
2015-May-23 06:06N 39°39' W 056°31'0 0.0 20.0
2015-May-23 06:03N 39°39' W 056°31'1 7.3 20.0
2015-May-23 05:57N 39°39' W 056°32'2 1.0 20.0
2015-May-23 04:17N 39°39' W 056°34'1 0.2 20.1
2015-May-23 01:52N 39°39' W 056°35'0 0.0 20.2
2015-May-23 01:01N 39°39' W 056°35'1 1.5 20.2
2015-May-23 00:09N 39°38' W 056°36'0 4.2 20.2
2015-May-23 00:05N 39°38' W 056°37'1 0.3 20.2
2015-May-22 22:07N 39°38' W 056°38'0 2.6 20.2
2015-May-22 22:01N 39°38' W 056°37'1 0.4 20.2
2015-May-22 19:59N 39°38' W 056°38'0 0.9 20.2
2015-May-22 19:54N 39°38' W 056°38'0 0.7 20.2
2015-May-22 19:18N 39°37' W 056°38'1 0.4 20.2
2015-May-22 16:03N 39°36' W 056°39'0 0.0 20.1
2015-May-22 16:00N 39°36' W 056°39'1 0.2 20.1
2015-May-22 12:49N 39°36' W 056°38'1 0.6 19.9
2015-May-22 11:55N 39°36' W 056°37'0 0.3 19.9
2015-May-22 10:09N 39°37' W 056°37'0 0.0 19.8
2015-May-22 09:30N 39°37' W 056°37'0 0.4 19.8
2015-May-22 09:01N 39°37' W 056°37'0 0.6 19.7
2015-May-22 08:56N 39°37' W 056°37'0 4.2 19.7
2015-May-22 08:54N 39°37' W 056°37'1 0.5 19.7
2015-May-22 07:17N 39°37' W 056°36'0 2.6 19.7
2015-May-22 07:14N 39°37' W 056°36'0 3.3 19.7
2015-May-22 07:12N 39°37' W 056°36'0 0.1 19.7
2015-May-22 06:16N 39°37' W 056°36'0 0.9 19.7
2015-May-22 06:13N 39°37' W 056°36'0 0.0 19.7
2015-May-22 06:08N 39°37' W 056°36'120.1 19.7
2015-May-22 06:06N 39°38' W 056°36'1 0.4 19.7
2015-May-22 02:59N 39°39' W 056°35'0 0.4 19.7
2015-May-22 02:13N 39°38' W 056°35'0 4.7 19.7
2015-May-22 02:08N 39°38' W 056°35'0 0.1 19.7
2015-May-22 00:35N 39°38' W 056°35'0 0.5 19.8
2015-May-21 23:51N 39°39' W 056°34'1 0.6 19.8
2015-May-21 22:13N 39°39' W 056°33'0 0.0 19.9
2015-May-21 22:03N 39°39' W 056°33'2 1.0 19.9
2015-May-21 20:16N 39°41' W 056°33'1 0.4 20.0
2015-May-21 18:58N 39°42' W 056°33'1 1.0 20.0
2015-May-21 17:55N 39°43' W 056°33'2 1.0 20.0
2015-May-21 16:08N 39°44' W 056°34'1 1.0 20.0
2015-May-21 14:51N 39°45' W 056°35'1 1.5 20.0
2015-May-21 14:00N 39°47' W 056°36'1 0.9 20.0
2015-May-21 13:08N 39°47' W 056°37'0 9.1 20.0
2015-May-21 13:05N 39°47' W 056°37'0 0.2 20.0
2015-May-21 12:12N 39°47' W 056°37'3 0.9 20.0
2015-May-21 09:07N 39°48' W 056°40'0 8.6 20.2
2015-May-21 09:04N 39°48' W 056°40'1 0.9 20.2
2015-May-21 08:07N 39°49' W 056°41'0 0.0 20.2
2015-May-21 08:04N 39°49' W 056°41'117.7 20.2
2015-May-21 08:02N 39°48' W 056°40'3 1.9 20.2
2015-May-21 06:18N 39°51' W 056°43'3 0.6 20.2
2015-May-21 01:42N 39°52' W 056°46'1 1.2 20.2
2015-May-21 00:55N 39°52' W 056°48'1 0.7 20.2
2015-May-21 00:01N 39°52' W 056°48'1 7.7 20.2
2015-May-20 23:54N 39°52' W 056°50'1 0.8 20.2
2015-May-20 23:13N 39°52' W 056°49'1 0.5 20.2
2015-May-20 20:56N 39°52' W 056°51'1 0.4 20.2
2015-May-20 18:06N 39°52' W 056°52'1 0.4 20.4
2015-May-20 15:04N 39°53' W 056°54'2 0.6 20.4
2015-May-20 11:08N 39°53' W 056°57'0 3.4 19.9
2015-May-20 11:03N 39°53' W 056°57'0 0.0 19.9
2015-May-20 11:01N 39°53' W 056°57'0 4.2 19.9
2015-May-20 10:55N 39°53' W 056°57'0 0.7 19.9
2015-May-20 10:32N 39°53' W 056°57'1 0.4 19.9
2015-May-20 09:17N 39°54' W 056°57'0 0.0 19.9
2015-May-20 09:12N 39°54' W 056°57'0 0.3 19.9
2015-May-20 08:16N 39°54' W 056°57'0 0.3 19.9
2015-May-20 07:11N 39°54' W 056°57'1 0.6 19.9
2015-May-20 04:58N 39°55' W 056°57'2 0.6 19.9
2015-May-20 01:59N 39°56' W 056°59'1 3.8 19.9
2015-May-20 01:51N 39°56' W 056°60'1 0.4
2015-May-19 22:51N 39°57' W 057°01'0 7.5 20.0
2015-May-19 22:47N 39°57' W 057°01'1 0.5 20.0
2015-May-19 21:08N 39°57' W 057°02'0 2.3 20.2
2015-May-19 21:02N 39°58' W 057°02'1 0.5 20.2
2015-May-19 19:20N 39°58' W 057°03'1 0.7 20.1
2015-May-19 18:18N 39°58' W 057°04'4 1.0 20.1
2015-May-19 13:53N 40°01' W 057°08'0 0.1 19.9
2015-May-19 12:06N 40°00' W 057°08'0 0.0 19.8
2015-May-19 11:32N 40°00' W 057°08'1 5.0 19.8
2015-May-19 11:25N 40°01' W 057°09'0 0.2 19.8
2015-May-19 11:08N 40°01' W 057°09'132.9 19.8
2015-May-19 11:07N 40°01' W 057°09'1 7.7 19.8
2015-May-19 11:03N 40°01' W 057°09'1 0.5 19.8
2015-May-19 09:55N 40°01' W 057°09'1 5.2 19.7
2015-May-19 09:46N 40°01' W 057°10'0 0.0 19.7
2015-May-19 09:36N 40°01' W 057°10'0 1.1 19.7
2015-May-19 09:28N 40°02' W 057°10'110.3 19.7
2015-May-19 09:22N 40°02' W 057°11'2 0.6 19.7
2015-May-19 06:52N 40°03' W 057°13'210.7 19.7
2015-May-19 06:43N 40°03' W 057°15'0 0.0 19.7
2015-May-19 06:40N 40°03' W 057°15'0 0.0 19.7
2015-May-19 05:08N 40°03' W 057°15'224.4 19.7
2015-May-19 05:03N 40°03' W 057°18'0 0.0 19.7
2015-May-19 05:00N 40°03' W 057°18'0 0.0 19.7
2015-May-19 02:21N 40°03' W 057°18'0 0.5 19.5
2015-May-19 02:14N 40°03' W 057°18'0 0.0 19.5
2015-May-19 01:37N 40°03' W 057°18'0 0.0 19.5
2015-May-19 01:33N 40°03' W 057°18'1 0.8 19.5
2015-May-19 00:43N 40°03' W 057°19'1 0.7 19.5
2015-May-18 23:55N 40°03' W 057°20'0 3.0 19.5
2015-May-18 23:52N 40°03' W 057°20'012.5 19.5
2015-May-18 23:50N 40°03' W 057°20'110.7 19.5
2015-May-18 23:47N 40°03' W 057°20'1 0.8 19.5
2015-May-18 23:03N 40°03' W 057°20'1 0.5 19.5
2015-May-18 21:39N 40°03' W 057°21'0 3.6 19.5
2015-May-18 21:35N 40°04' W 057°22'0 0.3 19.5
2015-May-18 21:08N 40°03' W 057°21'1 1.3 19.5
2015-May-18 20:21N 40°03' W 057°23'0 0.9 19.5
2015-May-18 19:59N 40°04' W 057°23'0 0.0 19.5
2015-May-18 19:33N 40°04' W 057°23'0 0.0 19.5
2015-May-18 19:30N 40°04' W 057°23'0 0.2 19.5
2015-May-18 18:29N 40°04' W 057°23'1 0.7 19.5
2015-May-18 16:46N 40°04' W 057°25'1 0.7 19.5
2015-May-18 15:52N 40°04' W 057°26'0 0.2 19.5
2015-May-18 15:05N 40°04' W 057°25'136.1 19.5
2015-May-18 15:04N 40°04' W 057°26'112.0 19.5
2015-May-18 15:01N 40°04' W 057°25'1 0.7 19.5
2015-May-18 14:16N 40°04' W 057°26'1 6.6 19.5
2015-May-18 14:06N 40°05' W 057°27'0 0.3 19.5
2015-May-18 13:13N 40°05' W 057°28'0 0.4 19.5
2015-May-18 12:34N 40°05' W 057°27'0 1.7 19.5
2015-May-18 12:27N 40°05' W 057°28'0 0.8 19.5
2015-May-18 11:54N 40°05' W 057°28'0 6.2 19.4
2015-May-18 11:50N 40°05' W 057°29'0 0.0 19.4
2015-May-18 11:36N 40°05' W 057°29'0 2.2 19.4
2015-May-18 11:33N 40°05' W 057°29'0 0.2 19.4
2015-May-18 11:21N 40°05' W 057°29'117.4 19.4
2015-May-18 11:19N 40°05' W 057°30'0 0.0 19.4
2015-May-18 10:19N 40°05' W 057°30'0 0.4 19.4
2015-May-18 10:08N 40°05' W 057°30'0 0.8 19.4
2015-May-18 09:56N 40°05' W 057°30'0 1.0 19.4
2015-May-18 09:47N 40°05' W 057°30'0 0.0 19.4
2015-May-18 09:45N 40°05' W 057°30'115.5 19.4
2015-May-18 09:42N 40°05' W 057°31'1 0.6 19.4
2015-May-18 08:40N 40°05' W 057°31'110.4 19.4
2015-May-18 08:36N 40°05' W 057°32'1 2.5 19.4
2015-May-18 08:16N 40°05' W 057°31'1 2.8 19.4
2015-May-18 08:05N 40°05' W 057°32'0 2.3 19.4
2015-May-18 08:00N 40°05' W 057°32'112.5 19.4
2015-May-18 07:57N 40°05' W 057°32'0 0.0 19.4
2015-May-18 07:02N 40°05' W 057°32'0 1.9 19.4
2015-May-18 06:55N 40°05' W 057°33'121.9 19.4
2015-May-18 06:52N 40°04' W 057°34'0 0.0 19.4
2015-May-18 05:20N 40°04' W 057°34'213.8 19.4
2015-May-18 05:13N 40°04' W 057°36'1 0.3 19.4
2015-May-18 02:36N 40°04' W 057°37'0 0.0 19.4
2015-May-18 01:56N 40°04' W 057°37'1 0.9 19.4
2015-May-18 01:05N 40°04' W 057°37'0 0.0 19.4
2015-May-18 00:58N 40°04' W 057°37'1 9.3 19.4
2015-May-18 00:54N 40°03' W 057°38'0 0.0 19.4
2015-May-18 00:17N 40°03' W 057°38'0 0.7 19.4
2015-May-18 00:13N 40°03' W 057°38'0 4.0 19.4
2015-May-18 00:07N 40°03' W 057°39'0 0.0 19.4
2015-May-17 23:22N 40°03' W 057°39'1 8.6 19.4
2015-May-17 23:16N 40°02' W 057°39'0 0.0 19.4
2015-May-17 22:32N 40°02' W 057°39'0 0.0
2015-May-17 22:04N 40°02' W 057°39'0 0.0 19.4
2015-May-17 22:02N 40°02' W 057°39'0 0.4 19.4
2015-May-17 21:21N 40°02' W 057°40'1 4.3 19.4
2015-May-17 21:14N 40°03' W 057°40'1 1.4 19.4
2015-May-17 20:50N 40°02' W 057°40'0 0.0 19.3
2015-May-17 20:22N 40°02' W 057°40'0 0.5 19.3
2015-May-17 19:42N 40°02' W 057°40'0 0.0 19.3
2015-May-17 18:43N 40°02' W 057°40'0 0.0 19.3
2015-May-17 18:40N 40°02' W 057°40'1 5.8 19.3
2015-May-17 18:30N 40°02' W 057°42'0 0.0 19.3
2015-May-17 17:59N 40°02' W 057°42'0 0.0 19.3
2015-May-17 16:58N 40°02' W 057°42'0 2.3 19.3
2015-May-17 16:56N 40°02' W 057°42'0 0.1 19.3
2015-May-17 16:08N 40°02' W 057°42'1 0.7
2015-May-17 15:14N 40°02' W 057°42'2 0.5 19.3
2015-May-17 11:57N 40°02' W 057°45'0 2.3 19.2
2015-May-17 11:55N 40°02' W 057°45'1 0.5 19.2
2015-May-17 10:21N 40°01' W 057°45'0 0.8 19.2
2015-May-17 09:57N 40°01' W 057°45'0 1.4 19.2
2015-May-17 09:51N 40°01' W 057°46'0 0.3 19.2
2015-May-17 08:39N 40°01' W 057°45'1 2.4 19.3
2015-May-17 08:16N 40°01' W 057°46'0 6.6 19.3
2015-May-17 08:12N 40°01' W 057°47'111.3 19.3
2015-May-17 08:08N 40°00' W 057°46'0 0.4 19.3
2015-May-17 07:14N 40°00' W 057°47'0 2.1 19.3
2015-May-17 07:04N 40°00' W 057°46'1 0.2 19.3
2015-May-17 03:03N 39°60' W 057°47'1 0.2 19.3
2015-May-16 23:45N 40°00' W 057°48'0 0.3 19.2
2015-May-16 22:55N 40°00' W 057°48'0 0.2 19.2
2015-May-16 22:20N 40°00' W 057°48'1 0.4 19.2
2015-May-16 20:49N 40°00' W 057°48'0 0.0 19.2
2015-May-16 19:55N 40°00' W 057°48'0 0.5 19.2
2015-May-16 19:06N 40°00' W 057°48'1 1.4 19.2
2015-May-16 18:12N 40°01' W 057°50'0 0.1 19.2
2015-May-16 17:07N 40°01' W 057°50'0 0.0 19.2
2015-May-16 14:51N 40°01' W 057°50'1 0.8
2015-May-16 14:03N 40°01' W 057°50'0 0.0 19.2
2015-May-16 13:14N 40°01' W 057°50'0 3.1 19.1
2015-May-16 13:06N 40°01' W 057°51'2 1.8 19.1
2015-May-16 12:15N 39°60' W 057°52'0 0.0 19.1
2015-May-15 21:14N 39°60' W 057°52'1 0.6 19.2
2015-May-15 20:06N 40°00' W 057°53'   19.2

Dump ship's entire track history